Weather observations for the past three days for
Pagosa Springs, Wolf Creek Pass
Metric (Imperial)
Date Time (mdt) Wind (kph) Vis. (km) Weather Sky Cond. Temperature (ºC) Relative Humidity Wind Chill (°C) Heat Index (°C) Pressure Precipitation (cm)
Air Dwpt 6 hour altimeter (cm) sea level (mb) 1 hr 3 hr 6 hr
Max. Min.
02 07:15 W 13 G 26 16.09 Fair CLR 5 0 70% 2 77.83 0.0
02 06:55 SW 13 G 28 16.09 Fair CLR 5 1 76% 2 77.83 0.0
02 06:35 SW 15 16.09 Partly Cloudy SCT019 5 1 76% 2 77.83 0.0
02 06:15 SW 15 16.09 Partly Cloudy SCT019 5 1 76% 2 77.83 0.0
02 05:55 SW 13 16.09 Fair CLR 5 1 76% 2 77.83 0.0
02 05:35 W 20 G 26 16.09 Fair CLR 5 0 70% 1 77.83 0.0
02 05:15 SW 17 16.09 Fair CLR 5 0 70% 2 77.83 0.0
02 04:55 SW 20 G 31 16.09 Fair CLR 5 0 70% 1 77.83 0.0
02 04:35 SW 20 G 28 16.09 Fair CLR 5 0 70% 1 77.83 0.0
02 04:15 SW 15 16.09 Mostly Cloudy SCT032 SCT038 BKN050 6 0 66% 3 77.83 0.0
02 03:55 SW 15 16.09 Partly Cloudy SCT034 SCT040 6 0 66% 3 77.85 0.0
02 03:35 SW 15 G 26 16.09 Fair CLR 6 0 66% 3 77.85 0.0
02 03:15 SW 20 G 31 16.09 Fair CLR 6 0 66% 3 77.85 0.0
02 02:55 SW 19 16.09 Fair CLR 6 0 66% 3 77.85 0.0
02 02:35 SW 19 G 30 16.09 Fair CLR 6 0 66% 3 77.88 0.0
02 02:15 W 22 G 33 16.09 Fair CLR 6 0 66% 2 77.88 0.0
02 01:55 SW 20 G 28 16.09 Fair CLR 6 1 71% 3 77.9 0.0
02 01:35 W 17 16.09 Fair CLR 6 1 71% 3 77.9 0.0
02 01:15 SW 15 16.09 Fair CLR 6 1 71% 3 77.9 0.0
02 00:55 W 15 16.09 Fair CLR 6 1 71% 3 77.9 0.0
02 00:35 W 15 16.09 Fair CLR 6 1 71% 3 77.9 0.0
02 00:15 SW 17 16.09 Fair CLR 6 0 66% 3 77.88 0.0
01 23:55 SW 13 16.09 Fair CLR 6 0 66% 4 77.88 0.0
01 23:35 SW 13 16.09 Fair CLR 6 0 66% 4 77.9 0.0
01 23:15 SW 13 16.09 Fair CLR 6 0 66% 4 77.9 0.0
01 22:55 W 13 16.09 Fair CLR 6 1 71% 4 77.9 0.0
01 22:35 W 13 16.09 Fair CLR 7 0 61% 5 77.9 0.0
01 22:15 W 17 16.09 Fair CLR 7 1 66% 4 77.88 0.0
01 21:55 SW 15 16.09 Fair CLR 7 1 66% 5 77.88 0.0
01 21:35 SW 13 16.09 Fair CLR 7 1 66% 5 77.85 0.0
01 21:15 W 13 16.09 Fair CLR 7 1 66% 5 77.85 0.0
01 20:55 W 13 16.09 Fair CLR 7 1 66% 5 77.83 0.0
01 20:35 SW 17 G 28 16.09 Fair CLR 8 1 62% 6 77.83 0.0
01 20:15 W 11 16.09 Fair CLR 8 1 62% 6 77.8 0.0
01 19:55 SW 19 G 30 16.09 Fair CLR 8 1 62% 5 77.8 0.0
01 19:35 SW 20 G 35 16.09 Fair CLR 10 1 54% 8 77.77 0.0
01 19:15 SW 26 G 37 16.09 Fair CLR 10 1 54% 7 77.77 0.0
01 18:55 SW 26 G 37 16.09 Partly Cloudy SCT044 SCT050 11 1 50% 77.77 0.0
01 18:35 SW 19 G 35 16.09 Partly Cloudy SCT042 SCT050 11 1 50% 77.8 0.0
01 18:15 SW 20 G 35 16.09 Fair CLR 11 1 50% 77.8 0.0
01 17:55 SW 26 G 44 16.09 Partly Cloudy SCT050 13 1 44% 77.77 0.0
01 17:35 SW 20 G 33 16.09 Partly Cloudy SCT050 SCT060 13 0 41% 77.8 0.0
01 17:15 SW 19 G 39 16.09 Partly Cloudy SCT050 SCT060 13 0 41% 77.8 0.0
01 16:55 W 20 G 33 16.09 Mostly Cloudy SCT048 BKN060 BKN070 13 1 44% 77.8 0.0
01 16:35 W 13 G 30 16.09 Partly Cloudy SCT060 SCT070 11 1 50% 77.83 0.0
01 16:15 SW 19 G 33 16.09 Mostly Cloudy SCT044 SCT060 BKN070 12 2 51% 77.83 0.0
01 15:55 SW 20 G 33 16.09 Mostly Cloudy SCT044 BKN070 12 2 51% 77.83 0.0
01 15:35 S 26 G 39 16.09 Partly Cloudy SCT044 14 1 41% 77.83 0.0
01 15:15 SW 13 G 35 16.09 Partly Cloudy SCT041 15 2 42% 77.85 0.0
01 14:55 SW 22 G 35 16.09 Partly Cloudy SCT041 SCT048 SCT065 13 2 47% 77.85 0.0
01 14:35 SW 19 G 37 16.09 Thunderstorm in Vicinity SCT041 SCT055 13 2 47% 77.88 0.0
01 14:15 SW 19 G 28 16.09 Mostly Cloudy SCT039 SCT048 BKN065 12 3 54% 77.9 0.0
01 13:55 SW 17 G 30 16.09 Mostly Cloudy SCT034 SCT040 BKN065 12 3 54% 77.9 0.0
01 13:35 SW 13 G 35 16.09 Thunderstorm in Vicinity BKN034 BKN041 BKN055 12 3 54% 77.9 0.0
01 13:15 SW 15 16.09 Overcast SCT031 BKN039 OVC055 12 3 54% 77.9 0.0
01 12:55 SW 19 G 28 16.09 Mostly Cloudy SCT032 BKN041 11 3 58% 77.9 0.0
01 12:35 SW 11 G 28 16.09 Fair CLR 10 3 62% 9 77.9 0.0
01 12:15 W 13 G 26 16.09 Partly Cloudy SCT026 SCT033 11 3 58% 77.93 0.0
01 11:55 SW 13 16.09 Partly Cloudy SCT026 SCT033 12 3 54% 77.93 0.0
01 11:35 SW 17 16.09 Partly Cloudy SCT024 SCT031 11 3 58% 77.93 0.0
01 11:15 W 15 16.09 Partly Cloudy SCT029 10 3 62% 8 77.95 0.0
01 10:55 SW 11 16.09 Partly Cloudy SCT017 SCT022 10 2 58% 9 77.93 0.0
01 10:35 SW 15 16.09 Partly Cloudy SCT016 8 3 71% 6 77.9 0.0
01 10:15 SW 15 16.09 Partly Cloudy SCT012 8 3 71% 6 77.9 0.0
01 09:55 SW 15 16.09 Partly Cloudy SCT007 SCT012 7 3 76% 5 77.9 0.0
01 09:35 SW 11 16.09 Partly Cloudy SCT007 SCT012 7 5 87% 5 77.9 0.0
01 09:15 SW 15 16.09 Partly Cloudy SCT015 6 5 93% 3 77.9 0.0
01 08:55 SW 13 16.09 Mostly Cloudy SCT003 BKN006 5 5 100% 2 77.9 0.0
01 08:35 SW 9 16.09 Overcast BKN001 OVC006 5 5 100% 3 77.9 0.0
01 08:15 SW 9 0.40 Overcast OVC003 5 5 100% 3 77.88 0.0
01 07:55 SW 13 0.24 Overcast OVC001 5 5 100% 2 77.85 0.0
01 07:35 SW 13 0.24 Overcast OVC001 5 5 100% 2 77.85 0.0
01 07:15 SW 17 0.40 Overcast OVC001 4 4 100% 1 77.83 0.0
01 06:55 SW 17 G 31 0.40 Overcast OVC001 4 4 100% 1 77.83 0.0
01 06:35 SW 20 G 33 0.40 Overcast OVC001 4 4 100% 0 77.83 0.0
01 06:15 SW 20 G 31 0.40 Overcast OVC001 4 4 100% 0 77.77 0.0
01 05:55 SW 15 0.40 Overcast OVC001 5 5 100% 2 77.77 0.0
01 05:35 SW 20 G 30 0.40 Overcast OVC001 5 5 100% 1 77.77 0.0
01 05:15 SW 13 0.40 Overcast OVC001 5 5 100% 2 77.77 0.0
01 04:55 SW 19 G 26 0.40 Overcast OVC001 5 5 100% 2 77.77 0.0
01 04:35 SW 22 G 35 1.21 Overcast OVC001 5 5 100% 1 77.77 0.0
01 04:15 SW 20 G 28 6.44 Overcast OVC001 5 5 100% 1 77.77 0.0
01 03:55 SW 19 G 28 11.27 Overcast OVC003 4 4 100% 0 77.77 0.0
01 03:35 SW 17 16.09 Overcast OVC003 4 4 100% 1 77.8 0.0
01 03:15 SW 19 16.09 Overcast OVC003 4 4 100% 0 77.8 0.0
01 02:55 SW 22 G 31 16.09 Overcast BKN005 BKN009 OVC065 4 4 100% -0 77.8 0.0
01 02:35 SW 20 G 33 16.09 Overcast BKN007 OVC013 4 4 100% 0 77.8 0.0
01 02:15 SW 20 G 31 16.09 Overcast BKN007 OVC010 4 4 100% 0 77.83 0.0
01 01:55 SW 20 G 35 16.09 Overcast BKN007 OVC010 5 5 100% 1 77.83 0.0
01 01:35 SW 22 G 35 16.09 Overcast SCT007 BKN012 OVC085 4 4 100% -0 77.83 0.0
01 01:15 SW 19 G 26 16.09 Mostly Cloudy SCT049 SCT060 BKN090 4 4 100% 0 77.83 0.0
01 00:55 SW 17 16.09 Overcast SCT055 SCT075 OVC090 4 4 100% 1 77.83 0.0
01 00:35 SW 17 G 26 16.09 Partly Cloudy SCT048 SCT055 SCT075 4 4 100% 1 77.83 0.0
01 00:15 SW 26 G 41 16.09 Mostly Cloudy SCT009 SCT038 BKN050 5 4 93% 1 77.8 0.0
31 23:55 SW 22 G 41 16.09 Overcast SCT009 BKN050 OVC085 5 4 93% 1 77.83 0.0
31 23:35 SW 24 G 33 16.09 Mostly Cloudy SCT042 BKN050 BKN085 5 3 87% 1 77.83 0.0
31 23:15 SW 22 G 31 16.09 Partly Cloudy SCT050 5 3 87% 1 77.83 0.0
31 22:55 SW 17 16.09 Partly Cloudy SCT050 4 3 93% 1 77.8 0.0
31 22:35 SW 19 16.09 Fair CLR 4 3 93% 0 77.83 0.0
31 22:15 SW 17 G 26 16.09 Fair CLR 5 3 87% 2 77.83 0.0
31 21:55 S 19 G 31 16.09 Partly Cloudy SCT023 SCT034 SCT043 5 3 87% 2 77.83 0.0
31 21:35 S 15 16.09 Overcast SCT023 BKN036 OVC043 5 3 87% 2 77.85 0.0
31 21:15 SW 17 16.09 Overcast SCT025 BKN031 OVC039 5 3 87% 2 77.85 0.0
31 20:55 SW 13 16.09 Overcast BKN025 BKN031 OVC037 5 4 93% 2 77.85 0.0
31 20:35 SW 9 16.09 Overcast BKN023 OVC030 5 4 93% 3 77.83 0.0
31 20:15 S 9 16.09 Overcast SCT011 BKN021 OVC029 5 4 93% 3 77.83 0.0
31 19:55 SW 15 G 28 16.09 Overcast BKN019 BKN026 OVC033 5 4 93% 2 77.83 0.0
31 19:35 S 20 G 26 16.09 Overcast OVC017 5 5 100% 1 77.83 0.0
31 19:15 S 20 G 31 16.09 Overcast SCT008 OVC017 5 5 100% 1 77.8 0.0
31 18:55 SW 17 G 33 16.09 Overcast SCT007 OVC019 5 5 100% 2 77.83 0.0
31 18:35 SW 20 G 35 16.09 Overcast OVC021 5 5 100% 1 77.83 0.0
31 18:15 SW 28 G 39 16.09 Overcast SCT009 OVC019 5 5 100% 1 77.83 0.0
31 17:55 SW 37 G 48 16.09 Overcast and Breezy SCT003 BKN011 OVC016 5 5 100% -0 77.83 0.0
31 17:35 SW 35 G 50 4.83 Overcast and Breezy BKN001 OVC005 5 5 100% 0 77.8 0.0
31 17:15 SW 30 G 44 0.24 Overcast OVC001 6 6 100% 2 77.8 0.0
31 16:55 SW 28 G 48 0.24 Overcast OVC001 6 6 100% 2 77.8 0.0 0.05
31 16:35 SW 31 G 46 16.09 Thunderstorm in Vicinity BKN005 OVC009 7 7 100% 3 77.83 0.0
31 16:15 SW 31 G 46 16.09 Thunderstorm BKN008 OVC013 7 7 100% 3 77.83 0.0
31 15:55 SW 28 G 41 16.09 Overcast BKN010 OVC014 9 6 82% 6 77.85 0.0
31 15:35 SW 24 G 43 16.09 Overcast BKN010 BKN016 OVC025 8 6 87% 5 77.85 0.0
31 15:15 SW 22 G 39 16.09 Overcast BKN015 BKN023 OVC060 9 6 82% 6 77.88 0.0
31 14:55 SW 20 G 37 16.09 Overcast BKN017 BKN028 OVC080 10 6 76% 8 77.9 0.0
31 14:35 SW 19 G 28 16.09 Overcast BKN017 BKN030 OVC044 10 6 76% 8 77.9 0.0
31 14:15 SW 22 G 37 16.09 Overcast SCT018 BKN023 OVC041 10 5 71% 7 77.93 0.0
31 13:55 S 20 G 33 16.09 Overcast BKN023 BKN030 OVC049 10 5 71% 8 77.95 0.0
31 13:35 SW 13 G 39 16.09 Mostly Cloudy SCT027 BKN032 BKN044 10 4 67% 8 77.95 0.0
31 13:15 SW 19 16.09 Overcast SCT027 BKN035 OVC070 10 4 67% 8 77.95 0.0
31 12:55 W 15 16.09 Mostly Cloudy SCT027 SCT035 BKN048 10 5 71% 8 77.98 0.0
31 12:35 SW 15 G 26 16.09 Mostly Cloudy SCT036 SCT050 BKN055 10 5 71% 8 78.03 0.0
31 12:15 SW 11 16.09 Partly Cloudy SCT043 SCT050 SCT075 10 4 67% 9 78.03 0.0
31 11:55 SW 11 16.09 Partly Cloudy SCT043 SCT050 10 4 67% 9 78.03 0.0
31 11:35 S 9 16.09 Partly Cloudy SCT040 10 5 71% 9 78.03 0.0
31 11:15 S 9 16.09 Mostly Cloudy SCT032 BKN040 BKN080 10 6 76% 9 78.03 0.0
31 10:55 Calm 16.09 Mostly Cloudy SCT032 SCT038 BKN046 8 6 87% 78.03 0.0
31 10:35 Calm 16.09 Overcast SCT040 OVC046 7 4 81% 78.03 0.0
31 10:15 NW 6 16.09 Overcast SCT034 BKN048 OVC055 6 3 81% 78.03 0.0
31 09:55 Calm 16.09 Overcast SCT031 BKN041 OVC049 6 3 81% 78 0.0
31 09:35 Calm 11.27 Overcast SCT028 OVC033 5 3 87% 78 0.0
31 09:15 W 9 11.27 Overcast OVC034 5 3 87% 3 78 0.0
31 08:55 W 6 16.09 Overcast BKN034 BKN040 OVC047 6 2 76% 78 0.0
31 08:35 Calm 16.09 Overcast BKN034 BKN042 OVC048 6 2 76% 78 0.0
31 08:15 Calm 11.27 Overcast SCT033 OVC042 6 3 81% 77.98 0.0
31 07:55 W 13 11.27 Overcast OVC042 6 2 76% 4 77.95 0.0
31 07:35 Calm 16.09 Overcast BKN044 BKN050 OVC070 7 1 66% 77.95 0.0
31 07:15 Calm 16.09 Overcast SCT044 BKN050 OVC110 7 1 66% 77.93 0.0
31 06:55 N 6 16.09 Mostly Cloudy SCT046 SCT060 BKN100 6 2 76% 77.9 0.0
31 06:35 W 11 16.09 Overcast SCT001 BKN045 OVC070 4 4 100% 2 77.9 0.0
31 06:15 SW 15 0.40 Overcast OVC001 4 4 100% 1 77.93 0.0
31 05:55 SW 20 G 30 0.24 Overcast OVC001 4 4 100% 0 77.93 0.0
31 05:35 SW 26 G 37 16.09 Overcast SCT007 SCT016 OVC027 5 4 93% 1 77.93 0.0
31 05:15 SW 19 16.09 Overcast BKN029 BKN038 OVC045 5 4 93% 2 77.95 0.0
31 04:55 W 19 16.09 Overcast SCT025 BKN046 OVC049 5 4 93% 2 77.95 0.0
31 04:35 W 22 16.09 Partly Cloudy SCT038 SCT048 SCT120 5 3 87% 1 77.93 0.0
31 04:15 SW 22 G 28 16.09 Fair CLR 5 3 87% 1 77.9 0.0
31 03:55 SW 17 16.09 Partly Cloudy SCT050 6 3 81% 3 77.9 0.0 0.03
31 03:35 SW 19 16.09 Overcast SCT037 SCT043 OVC055 7 3 76% 4 77.9 0.0
31 03:15 SW 11 16.09 Thunderstorm in Vicinity SCT042 BKN055 OVC090 7 3 76% 5 77.9 0.0
31 02:55 SW 9 16.09 Overcast BKN055 BKN070 OVC090 7 3 76% 5 77.9 0.0
31 02:35 W 9 16.09 Overcast SCT055 OVC070 7 3 76% 5 77.9 0.0
31 02:15 W 11 16.09 Partly Cloudy SCT070 SCT080 7 3 76% 5 77.9 0.0
31 01:55 Calm 16.09 Partly Cloudy SCT070 SCT080 7 2 71% 77.95 0.0
31 01:35 Calm 16.09 Partly Cloudy SCT070 SCT120 6 3 81% 77.95 0.0
31 01:15 NW 6 16.09 Partly Cloudy SCT120 5 5 100% 77.95 0.0
31 00:55 Calm 16.09 Fair CLR 5 3 87% 77.98 0.0
31 00:35 SE 7 16.09 Partly Cloudy SCT120 5 5 100% 4 77.98 0.0
31 00:15 S 6 16.09 Partly Cloudy SCT120 5 4 93% 78.03 0.0
30 23:55 S 7 16.09 Partly Cloudy SCT050 SCT120 5 4 93% 4 78.03 0.0
30 23:35 SE 7 16.09 Thunderstorm SCT041 BKN047 BKN090 5 4 93% 4 78.03 0.0
30 23:15 Calm 16.09 Overcast SCT038 OVC045 6 3 81% 78.03 0.0
30 22:55 W 6 16.09 Overcast SCT035 BKN047 OVC100 5 5 100% 78.03 0.0 0.08
30 22:35 W 11 16.09 Thunderstorm in Vicinity SCT028 BKN055 OVC090 5 5 100% 3 78.03 0.0 0.08
30 22:15 SW 17 G 39 6.44 Thunderstorm in Vicinity SCT023 BKN030 OVC036 5 5 100% 2 78.03 0.0 0.05
30 21:55 W 20 G 31 11.27 Thunderstorm SCT027 BKN035 OVC045 7 4 81% 4 78.03 0.0 0.03
30 21:35 NW 17 G 26 16.09 Thunderstorm in Vicinity BKN029 BKN048 OVC065 8 5 82% 6 77.98 0.0
30 21:15 W 9 16.09 Overcast SCT028 BKN050 OVC075 8 5 82% 7 77.95 0.0
30 20:55 SW 7 16.09 Thunderstorm in Vicinity SCT031 SCT037 BKN080 7 4 81% 6 77.93 0.0
30 20:35 SW 9 16.09 Partly Cloudy SCT035 SCT070 SCT080 7 3 76% 5 77.9 0.0
30 20:15 SW 19 G 28 16.09 Thunderstorm SCT025 SCT036 BKN070 7 4 81% 4 77.9 0.0
30 19:55 W 19 G 33 6.44 Overcast SCT023 BKN031 OVC044 6 5 93% 3 77.9 0.0 0.1
30 19:35 NW 11 G 33 6.44 Thunderstorm BKN031 OVC038 6 3 81% 4 77.9 0.0 0.05
30 19:15 W 7 G 28 16.09 Thunderstorm SCT033 BKN041 BKN050 10 3 62% 9 77.85 0.0
30 18:55 SW 17 G 28 16.09 Thunderstorm in Vicinity SCT036 SCT046 BKN060 11 3 58% 77.83 0.0
30 18:35 SW 20 G 31 16.09 Thunderstorm in Vicinity SCT037 SCT046 BKN060 11 4 62% 77.85 0.0
30 18:15 SW 15 G 31 16.09 Partly Cloudy SCT039 11 4 62% 77.85 0.0
30 17:55 SW 24 G 31 16.09 Thunderstorm in Vicinity CLR 11 3 58% 77.83 0.0
30 17:35 SW 28 G 41 16.09 Thunderstorm in Vicinity SCT044 12 3 54% 77.83 0.0
30 17:15 SW 26 G 41 16.09 Thunderstorm in Vicinity SCT034 SCT039 SCT045 12 3 54% 77.83 0.0
30 16:55 SW 28 G 41 16.09 Partly Cloudy SCT034 SCT049 13 4 55% 77.83 0.0
30 16:35 SW 24 G 43 16.09 Mostly Cloudy SCT030 SCT038 BKN055 12 4 58% 77.83 0.0
30 16:15 SW 22 G 41 16.09 Mostly Cloudy SCT030 SCT040 BKN055 12 4 58% 77.85 0.0
30 15:55 SW 22 G 41 16.09 Mostly Cloudy SCT026 SCT031 BKN040 12 4 58% 77.85 0.0
30 15:35 SW 26 G 46 16.09 Mostly Cloudy SCT021 SCT026 BKN031 12 5 63% 77.85 0.0
30 15:15 SW 24 G 41 16.09 Mostly Cloudy SCT021 BKN028 BKN036 12 5 63% 77.88 0.0
30 14:55 SW 20 G 39 16.09 Mostly Cloudy SCT018 SCT024 BKN033 11 6 72% 77.88 0.0
30 14:35 SW 22 G 39 16.09 Mostly Cloudy SCT016 SCT024 BKN030 11 6 72% 77.9 0.0
30 14:15 SW 24 G 37 16.09 Mostly Cloudy SCT014 SCT018 BKN031 11 6 72% 77.93 0.0
30 13:55 SW 24 G 35 16.09 Overcast BKN014 BKN023 OVC034 10 6 76% 7 77.93 0.0
30 13:35 SW 20 G 39 16.09 Overcast BKN014 OVC026 10 6 76% 8 77.95 0.0
30 13:15 SW 22 G 35 16.09 Overcast OVC016 10 6 76% 7 77.95 0.0
30 12:55 SW 19 G 35 16.09 Mostly Cloudy BKN014 BKN024 BKN030 11 6 72% 77.95 0.0
30 12:35 SW 24 G 39 16.09 Mostly Cloudy SCT010 BKN018 BKN024 10 6 76% 7 77.95 0.0
30 12:15 SW 19 G 43 16.09 Mostly Cloudy BKN010 BKN014 BKN020 10 6 76% 8 77.98 0.0
30 11:35 SW 20 G 33 16.09 Overcast BKN010 OVC018 9 6 82% 6 77.95 0.0
30 11:15 SW 19 G 28 16.09 Overcast BKN012 OVC017 8 6 87% 5 77.95 0.0
30 10:55 SW 24 G 31 16.09 Overcast SCT010 BKN015 OVC025 8 6 87% 5 77.95 0.0
30 10:35 SW 15 G 30 16.09 Overcast SCT011 BKN016 OVC060 8 6 87% 6 77.95 0.0
30 10:15 SW 15 16.09 Mostly Cloudy SCT009 SCT013 BKN024 8 6 87% 6 77.95 0.0
30 09:55 SW 17 16.09 Overcast SCT009 BKN024 OVC055 7 6 93% 4 77.95 0.0
30 09:35 SW 15 16.09 Mostly Cloudy BKN009 BKN028 BKN036 7 6 93% 5 77.93 0.0
30 09:15 SW 20 G 31 16.09 Mostly Cloudy BKN009 BKN028 6 5 93% 3 77.9 0.0
30 08:35 SW 17 16.09 Overcast BKN011 OVC028 6 5 93% 3 77.93 0.0
30 08:15 SW 19 16.09 Mostly Cloudy SCT011 SCT027 BKN039 6 5 93% 3 77.9 0.0
30 07:55 SW 17 16.09 Mostly Cloudy SCT014 SCT030 BKN038 5 5 100% 2 77.9 0.0
Date Time (mdt) Wind (kph) Vis. (km) Weather Sky Cond. Air Dwpt Max. Min. Relative Humidity Wind Chill (°C) Heat Index (°C) altimeter (cm) sea level (mb) 1 hr 3 hr 6 hr
6 hour
Temperature (ºC) Pressure Precipitation (cm)